Orlando, Florida
Traffic Map
Current Weather Conditions
Orlando, Florida
Overcast Thunderstorm
Overcast
70°
Feels Like: 70°
Wind Chill: 70° Ceiling: 10000
Heat Index: 70° Visibility: 10mi
Dew Point: 64° Wind: 9mph
Humidity: 81% Direction: 190° (S)
Pressure: 29.84in Gusts: 0mph
Raw Report DataKORL 041153Z 19008KT 10SM VCTS -RA FEW070 BKN100 OVC110 21/18 A2984 RMK AO2 LTG DSNT E-SW TSE12B17E42 SLP106 P0002 60008 70008 T02110178 10250 20211 50006
Traffic Incident Summary
Active as of:
Severity:
Category:
InformationThere was an issue retrieving the traffic information for this location. Please try a different location or try again shortly.
Advertisements
Track Severe Weather on mobile